Time;durP1;ratioP1;P1;durP2;ratioP2;P2;SDS_P1;SDS_P2;PMS_P1;PMS_P2;Temp;Humidity;BMP_temperature;BMP_pressure;BME280_temperature;BME280_humidity;BME280_pressure;Samples;Min_cycle;Max_cycle;Signal;HPM_P1;HPM_P2
2021/12/02 00:01:14;;;;;;;5.57;1.23;;;4.30;99.90;;;;;;5076738;28;20052;-61
2021/12/02 00:03:41;;;;;;;6.47;1.30;;;;;;;;;;5076697;28;20119;-61
2021/12/02 00:06:09;;;;;;;4.43;1.02;;;4.40;99.90;;;;;;5092629;28;20045;-61
2021/12/02 00:08:35;;;;;;;5.05;1.52;;;4.20;99.90;;;;;;5108787;28;20116;-61
2021/12/02 00:11:01;;;;;;;4.60;1.25;;;4.30;99.90;;;;;;5076467;28;20094;-61
2021/12/02 00:13:29;;;;;;;4.38;1.73;;;4.40;99.90;;;;;;5075632;28;20168;-61
2021/12/02 00:16:39;;;;;;;8.48;1.23;;;4.40;99.90;;;;;;5108396;28;20383;-61
2021/12/02 00:21:15;;;;;;;6.82;2.50;;;4.30;99.90;;;;;;5108586;28;20111;-61
2021/12/02 00:23:55;;;;;;;4.28;1.40;;;4.40;99.90;;;;;;5075078;28;20441;-61
2021/12/02 00:26:21;;;;;;;3.85;1.70;;;4.20;99.90;;;;;;5076092;28;20044;-61
2021/12/02 00:28:59;;;;;;;4.15;1.38;;;4.10;99.90;;;;;;5077306;28;20574;-61
2021/12/02 00:31:29;;;;;;;3.30;1.27;;;4.20;99.90;;;;;;5074943;28;20060;-61
2021/12/02 00:33:57;;;;;;;4.00;1.30;;;4.00;99.90;;;;;;5076861;28;20045;-62
2021/12/02 00:36:26;;;;;;;5.43;1.25;;;4.00;99.90;;;;;;5075391;28;20054;-61
2021/12/02 00:38:52;;;;;;;1.35;0.88;;;3.90;99.90;;;;;;5109216;28;20526;-61
2021/12/02 00:41:20;;;;;;;4.63;1.33;;;3.90;99.90;;;;;;5075200;28;20090;-61
2021/12/02 00:43:48;;;;;;;2.75;0.93;;;3.90;99.90;;;;;;5058754;28;20387;-61
2021/12/02 00:46:16;;;;;;;4.82;1.02;;;3.70;99.90;;;;;;5058846;28;20072;-61
2021/12/02 00:48:42;;;;;;;2.55;0.80;;;3.60;99.90;;;;;;5075949;28;20082;-61
2021/12/02 00:51:09;;;;;;;2.22;1.45;;;3.70;99.90;;;;;;5076267;28;20513;-61
2021/12/02 00:53:37;;;;;;;4.05;1.08;;;3.60;99.90;;;;;;5075395;28;20045;-61
2021/12/02 00:56:06;;;;;;;2.45;1.15;;;3.70;99.90;;;;;;5075070;28;20052;-62
2021/12/02 00:58:32;;;;;;;1.73;1.55;;;3.50;99.90;;;;;;5074550;28;20116;-61
2021/12/02 01:00:58;;;;;;;2.65;1.08;;;3.70;99.90;;;;;;5075668;28;20115;-60
2021/12/02 01:03:26;;;;;;;5.20;0.95;;;3.40;99.90;;;;;;5075854;28;20047;-61
2021/12/02 01:05:52;;;;;;;3.00;0.82;;;3.60;99.90;;;;;;5074668;28;20126;-62
2021/12/02 01:08:19;;;;;;;3.33;1.10;;;3.60;99.90;;;;;;5108519;28;20048;-61
2021/12/02 01:10:45;;;;;;;5.00;1.20;;;3.70;99.90;;;;;;5076091;28;20482;-61
2021/12/02 01:13:10;;;;;;;2.60;0.98;;;3.80;99.90;;;;;;5076450;28;20409;-61
2021/12/02 01:15:36;;;;;;;1.80;0.98;;;3.70;99.90;;;;;;5107496;28;20048;-61
2021/12/02 01:18:02;;;;;;;4.90;1.00;;;3.70;99.90;;;;;;5075870;28;20118;-61
2021/12/02 01:20:31;;;;;;;2.45;0.82;;;3.80;99.90;;;;;;5076117;28;20157;-61
2021/12/02 01:22:59;;;;;;;4.53;1.02;;;3.90;99.90;;;;;;5074541;28;20045;-61
2021/12/02 01:25:27;;;;;;;5.43;1.35;;;4.00;99.90;;;;;;5075184;28;20536;-61
2021/12/02 01:27:54;;;;;;;3.45;0.90;;;4.00;99.90;;;;;;5075381;28;20048;-62
2021/12/02 01:30:20;;;;;;;3.40;1.00;;;4.10;99.90;;;;;;5075560;28;20041;-61
2021/12/02 01:32:48;;;;;;;2.42;1.27;;;4.30;99.90;;;;;;5075596;28;20040;-61
2021/12/02 01:35:19;;;;;;;7.22;1.48;;;4.20;99.90;;;;;;5075387;28;20394;-61
2021/12/02 01:37:46;;;;;;;4.32;1.38;;;;;;;;;;5075775;28;20358;-61
2021/12/02 01:40:11;;;;;;;3.22;1.48;;;3.70;99.90;;;;;;5075819;28;20090;-61
2021/12/02 01:42:39;;;;;;;7.03;1.58;;;3.70;99.90;;;;;;5107795;28;20044;-60
2021/12/02 01:45:06;;;;;;;5.72;1.35;;;3.70;99.90;;;;;;5057256;28;20383;-61
2021/12/02 01:47:32;;;;;;;3.78;0.98;;;3.60;99.90;;;;;;5075210;28;20036;-61
2021/12/02 01:50:01;;;;;;;3.88;1.08;;;3.60;99.90;;;;;;5108056;28;20068;-61
2021/12/02 01:52:31;;;;;;;3.63;1.95;;;3.60;99.90;;;;;;5075890;28;20044;-61
2021/12/02 01:55:09;;;;;;;3.80;1.42;;;3.40;99.90;;;;;;5075352;28;20402;-61
2021/12/02 01:57:39;;;;;;;5.03;1.38;;;3.40;99.90;;;;;;5057173;28;20518;-61
2021/12/02 02:00:15;;;;;;;2.85;1.42;;;3.50;99.90;;;;;;5074815;28;20040;-61
2021/12/02 02:02:41;;;;;;;7.20;1.45;;;3.40;99.90;;;;;;5108134;28;20051;-61
2021/12/02 02:05:12;;;;;;;8.75;1.95;;;3.40;99.90;;;;;;5075227;28;20545;-61
2021/12/02 02:08:12;;;;;;;6.80;1.52;;;3.50;99.90;;;;;;5074409;28;20517;-61
2021/12/02 02:10:41;;;;;;;2.17;1.10;;;3.30;99.90;;;;;;5071060;28;20564;-61
2021/12/02 02:13:09;;;;;;;4.97;1.02;;;3.40;99.90;;;;;;5073604;28;20040;-61
2021/12/02 02:15:36;;;;;;;2.17;1.27;;;3.30;99.90;;;;;;5106747;28;20119;-61
2021/12/02 02:18:21;;;;;;;3.10;1.30;;;3.30;99.90;;;;;;5073919;28;20047;-61
2021/12/02 02:23:22;;;;;;;5.10;0.93;;;3.40;99.90;;;;;;5075703;28;20044;-61
2021/12/02 02:25:48;;;;;;;3.42;1.02;;;3.30;99.90;;;;;;5107657;28;20399;-61
2021/12/02 02:28:14;;;;;;;5.95;1.17;;;3.20;99.90;;;;;;5074642;28;20525;-61
2021/12/02 02:30:41;;;;;;;6.25;1.05;;;3.20;99.90;;;;;;5074998;28;20040;-61
2021/12/02 02:33:07;;;;;;;4.05;1.05;;;3.20;99.90;;;;;;5107394;28;20081;-61
2021/12/02 02:35:32;;;;;;;3.20;1.10;;;3.30;99.90;;;;;;5108972;27;20071;-62
2021/12/02 02:38:00;;;;;;;3.97;1.00;;;3.30;99.90;;;;;;5111440;28;20037;-61
2021/12/02 02:40:25;;;;;;;2.45;1.38;;;3.40;99.90;;;;;;5078251;28;20047;-61
2021/12/02 02:42:57;;;;;;;2.45;1.05;;;3.50;99.90;;;;;;5077903;28;20040;-61
2021/12/02 02:45:23;;;;;;;3.45;1.33;;;3.30;99.90;;;;;;5078716;28;20508;-61
2021/12/02 02:47:49;;;;;;;1.85;1.00;;;3.60;99.90;;;;;;5111140;28;20049;-61
2021/12/02 02:50:15;;;;;;;5.03;1.00;;;3.30;99.90;;;;;;5077839;28;20032;-61
2021/12/02 02:52:45;;;;;;;3.83;1.25;;;3.20;99.90;;;;;;5076966;28;20082;-61
2021/12/02 02:55:22;;;;;;;1.50;1.10;;;3.10;99.90;;;;;;5060736;28;20070;-61
2021/12/02 02:58:03;;;;;;;2.35;1.00;;;3.10;99.90;;;;;;5077637;28;20110;-61
2021/12/02 03:00:45;;;;;;;4.30;1.23;;;3.00;99.90;;;;;;5077053;28;20084;-61
2021/12/02 03:06:19;;;;;;;;;;;3.00;99.90;;;;;;5078186;28;20467;-61
2021/12/02 03:08:52;;;;;;;1.60;1.20;;;2.90;99.90;;;;;;5111179;28;20275;-62
2021/12/02 03:11:19;;;;;;;2.90;1.00;;;3.10;99.90;;;;;;5077813;28;20518;-61
2021/12/02 03:13:51;;;;;;;2.63;1.33;;;2.90;99.90;;;;;;5076708;28;20516;-61
2021/12/02 03:19:03;;;;;;;2.83;0.95;;;;;;;;;;5078106;28;20048;-61
2021/12/02 03:21:29;;;;;;;3.38;1.30;;;2.80;99.90;;;;;;5078121;28;20448;-61
2021/12/02 03:23:58;;;;;;;2.60;1.10;;;2.80;99.90;;;;;;5078064;28;20032;-61
2021/12/02 03:26:24;;;;;;;2.50;1.00;;;;;;;;;;5077940;28;20528;-61
2021/12/02 03:28:51;;;;;;;3.35;1.20;;;;;;;;;;5077610;28;20055;-61
2021/12/02 03:31:17;;;;;;;3.83;1.20;;;2.90;99.90;;;;;;5077785;28;20067;-61
2021/12/02 03:33:43;;;;;;;5.78;1.40;;;2.90;99.90;;;;;;5110895;28;20073;-61
2021/12/02 03:36:11;;;;;;;2.88;0.93;;;3.10;99.90;;;;;;5060043;28;20123;-61
2021/12/02 03:38:36;;;;;;;4.63;1.58;;;2.80;99.90;;;;;;5076953;28;20040;-61
2021/12/02 03:41:02;;;;;;;1.77;1.10;;;2.90;99.90;;;;;;5076983;28;20055;-61
2021/12/02 03:43:33;;;;;;;4.03;1.40;;;;;;;;;;5077570;28;20119;-60
2021/12/02 03:45:59;;;;;;;4.88;1.30;;;2.90;99.90;;;;;;5075944;28;20417;-61
2021/12/02 03:48:24;;;;;;;5.20;1.25;;;3.00;99.90;;;;;;5110376;28;20040;-61
2021/12/02 03:50:50;;;;;;;2.90;1.38;;;2.90;99.90;;;;;;5077706;28;20105;-61
2021/12/02 03:53:15;;;;;;;3.53;0.80;;;2.90;99.90;;;;;;5077801;28;20086;-60
2021/12/02 03:55:41;;;;;;;2.45;1.10;;;3.00;99.90;;;;;;5110706;28;20044;-63
2021/12/02 03:58:07;;;;;;;3.72;1.60;;;3.00;99.90;;;;;;5077759;28;20051;-61
2021/12/02 04:00:32;;;;;;;1.20;1.00;;;3.00;99.90;;;;;;5110200;28;20048;-61
2021/12/02 04:02:58;;;;;;;2.75;1.10;;;3.00;99.90;;;;;;5077146;28;20036;-61
2021/12/02 04:05:24;;;;;;;1.15;0.98;;;2.80;99.90;;;;;;5110104;28;20080;-61
2021/12/02 04:07:50;;;;;;;2.15;1.15;;;2.90;99.90;;;;;;5109718;28;20052;-61
2021/12/02 04:10:15;;;;;;;2.63;1.05;;;2.80;99.90;;;;;;5075563;28;20044;-61
2021/12/02 04:13:00;;;;;;;3.47;1.42;;;2.90;99.90;;;;;;5109156;28;20052;-61
2021/12/02 04:15:32;;;;;;;2.45;1.10;;;3.10;99.90;;;;;;5076894;28;20047;-61
2021/12/02 04:17:58;;;;;;;3.22;1.00;;;2.80;99.90;;;;;;5077541;28;20528;-61
2021/12/02 04:20:24;;;;;;;3.42;2.17;;;;;;;;;;5075714;28;20045;-60
2021/12/02 04:22:51;;;;;;;1.38;0.80;;;2.90;99.90;;;;;;5092134;28;20131;-61
2021/12/02 04:25:18;;;;;;;1.58;0.70;;;2.70;99.90;;;;;;5077199;28;20041;-61
2021/12/02 04:27:44;;;;;;;2.60;1.13;;;2.90;99.90;;;;;;5109489;28;20040;-61
2021/12/02 04:30:14;;;;;;;3.55;1.15;;;2.70;99.90;;;;;;5077512;28;20033;-61
2021/12/02 04:32:40;;;;;;;1.08;0.75;;;2.70;99.90;;;;;;5109927;28;20045;-61
2021/12/02 04:35:06;;;;;;;2.80;1.10;;;2.80;99.90;;;;;;5077576;28;20050;-61
2021/12/02 04:37:32;;;;;;;4.28;1.05;;;2.80;99.90;;;;;;5076649;28;20044;-61
2021/12/02 04:39:58;;;;;;;2.17;0.80;;;2.80;99.90;;;;;;5075949;28;20043;-61
2021/12/02 04:42:23;;;;;;;2.88;0.90;;;2.80;99.90;;;;;;5076464;28;20443;-62
2021/12/02 04:44:50;;;;;;;2.00;1.00;;;2.80;99.90;;;;;;5075788;28;20036;-61
2021/12/02 04:47:16;;;;;;;1.67;1.50;;;2.90;99.90;;;;;;5074664;28;20141;-61
2021/12/02 04:49:42;;;;;;;8.95;2.38;;;3.10;99.90;;;;;;5074861;28;20067;-61
2021/12/02 04:52:07;;;;;;;0.82;0.80;;;2.90;99.90;;;;;;5075997;28;20498;-61
2021/12/02 04:54:33;;;;;;;2.80;1.05;;;3.00;99.90;;;;;;5057802;28;20045;-61
2021/12/02 04:56:59;;;;;;;1.10;1.00;;;3.00;99.90;;;;;;5108785;28;20088;-61
2021/12/02 04:59:25;;;;;;;1.27;1.17;;;3.00;99.90;;;;;;5075101;28;20043;-61
2021/12/02 05:01:50;;;;;;;1.77;0.95;;;2.90;99.90;;;;;;5074565;28;20032;-61
2021/12/02 05:04:16;;;;;;;1.73;0.95;;;2.90;99.90;;;;;;5075614;28;20028;-61
2021/12/02 05:06:41;;;;;;;2.55;1.17;;;2.90;99.90;;;;;;5108335;28;20048;-61
2021/12/02 05:09:07;;;;;;;2.35;1.08;;;2.90;99.90;;;;;;5075434;28;20040;-61
2021/12/02 05:11:34;;;;;;;1.38;1.02;;;;;;;;;;5075276;28;20050;-61
2021/12/02 05:13:59;;;;;;;4.97;1.02;;;2.90;99.90;;;;;;5084473;28;20032;-61
2021/12/02 05:16:25;;;;;;;1.85;0.85;;;2.70;99.90;;;;;;5093904;28;20478;-61
2021/12/02 05:18:51;;;;;;;2.60;0.93;;;2.80;99.90;;;;;;5094805;28;20488;-61
2021/12/02 05:21:17;;;;;;;2.58;1.15;;;2.70;99.90;;;;;;5094853;28;20074;-61
2021/12/02 05:23:43;;;;;;;2.65;1.30;;;2.90;99.90;;;;;;5095071;28;20051;-61
2021/12/02 05:26:09;;;;;;;3.78;1.17;;;2.80;99.90;;;;;;5093538;28;20028;-60
2021/12/02 05:28:35;;;;;;;2.35;0.93;;;2.80;99.90;;;;;;5085094;28;20036;-61
2021/12/02 05:31:00;;;;;;;3.60;1.60;;;2.80;99.90;;;;;;5094107;28;20044;-61
2021/12/02 05:33:26;;;;;;;3.67;0.90;;;2.80;99.90;;;;;;5095907;28;20036;-61
2021/12/02 05:35:52;;;;;;;3.65;1.08;;;;;;;;;;5094269;28;20056;-61
2021/12/02 05:38:17;;;;;;;3.05;1.13;;;2.80;99.90;;;;;;5093951;28;20066;-61
2021/12/02 05:40:43;;;;;;;1.98;1.25;;;3.00;99.90;;;;;;5093763;28;20473;-61
2021/12/02 05:43:09;;;;;;;4.30;0.82;;;3.00;99.90;;;;;;5094144;28;20090;-61
2021/12/02 05:45:34;;;;;;;3.20;1.38;;;3.00;99.90;;;;;;5090282;28;20093;-61
2021/12/02 05:48:00;;;;;;;3.88;1.35;;;;;;;;;;5059915;28;20418;-64
2021/12/02 05:50:26;;;;;;;2.47;0.90;;;;;;;;;;5072799;28;20387;-62
2021/12/02 05:52:53;;;;;;;2.95;1.10;;;;;;;;;;5071915;28;20075;-62
2021/12/02 05:55:18;;;;;;;2.40;1.40;;;3.20;99.90;;;;;;5070077;28;20169;-62
2021/12/02 05:57:44;;;;;;;1.45;1.20;;;;;;;;;;5069967;28;20064;-63
2021/12/02 06:00:11;;;;;;;2.15;0.90;;;;;;;;;;5070343;28;20096;-62
2021/12/02 06:02:37;;;;;;;3.65;1.20;;;2.90;99.90;;;;;;5070253;28;20048;-61
2021/12/02 06:05:04;;;;;;;1.80;1.00;;;3.00;99.90;;;;;;5072327;28;20115;-63
2021/12/02 06:07:31;;;;;;;1.70;1.13;;;3.00;99.90;;;;;;5072523;28;20036;-62
2021/12/02 06:09:57;;;;;;;1.88;0.93;;;;;;;;;;5070098;28;20170;-61
2021/12/02 06:12:22;;;;;;;1.02;0.75;;;3.10;99.90;;;;;;5072424;28;20124;-62
2021/12/02 06:14:48;;;;;;;2.42;1.05;;;3.10;99.90;;;;;;5072221;28;20041;-62
2021/12/02 06:17:14;;;;;;;1.10;1.00;;;3.10;99.90;;;;;;5071149;28;20048;-61
2021/12/02 06:19:39;;;;;;;2.05;0.80;;;3.00;99.90;;;;;;5072170;28;20037;-61
2021/12/02 06:22:08;;;;;;;1.17;0.77;;;3.10;99.90;;;;;;5104674;28;20474;-61
2021/12/02 06:24:44;;;;;;;2.10;0.80;;;3.10;99.90;;;;;;5104739;28;20050;-62
2021/12/02 06:27:11;;;;;;;1.45;0.90;;;;;;;;;;5098261;28;20040;-61
2021/12/02 06:29:37;;;;;;;2.25;1.30;;;;;;;;;;5072083;28;20029;-62
2021/12/02 06:32:04;;;;;;;2.83;0.75;;;;;;;;;;5071690;28;20468;-61
2021/12/02 06:34:31;;;;;;;2.80;0.90;;;3.10;99.90;;;;;;5067070;28;20044;-61
2021/12/02 06:36:57;;;;;;;1.48;0.80;;;3.20;99.90;;;;;;5070047;28;20095;-61
2021/12/02 06:39:23;;;;;;;0.93;0.90;;;;;;;;;;5071662;28;20458;-61
2021/12/02 06:41:49;;;;;;;2.47;1.20;;;;;;;;;;5069375;28;20048;-60
2021/12/02 06:44:14;;;;;;;1.58;0.85;;;3.20;99.90;;;;;;5069462;28;20083;-61
2021/12/02 06:46:40;;;;;;;1.42;1.00;;;;;;;;;;5069228;28;20075;-61
2021/12/02 06:49:06;;;;;;;1.27;1.00;;;3.20;99.90;;;;;;5072242;28;20040;-61
2021/12/02 06:51:32;;;;;;;1.23;0.90;;;3.10;99.90;;;;;;5071579;28;20486;-61
2021/12/02 06:53:59;;;;;;;3.55;1.00;;;3.10;99.90;;;;;;5071736;28;20453;-61
2021/12/02 06:56:24;;;;;;;0.90;0.90;;;3.10;99.90;;;;;;5072756;28;20574;-62
2021/12/02 06:58:50;;;;;;;3.47;1.33;;;3.10;99.90;;;;;;5071389;28;20148;-61
2021/12/02 07:01:16;;;;;;;1.55;1.27;;;;;;;;;;5111031;28;20410;-61
2021/12/02 07:03:41;;;;;;;4.57;1.35;;;3.10;99.90;;;;;;5084874;28;20040;-61
2021/12/02 07:06:07;;;;;;;4.18;0.70;;;3.20;99.90;;;;;;5075542;28;20040;-61
2021/12/02 07:08:33;;;;;;;4.13;1.00;;;3.10;99.90;;;;;;5072276;28;20048;-61
2021/12/02 07:11:00;;;;;;;1.13;1.02;;;3.10;99.90;;;;;;5071153;28;20085;-61
2021/12/02 07:13:25;;;;;;;2.85;1.45;;;3.20;99.90;;;;;;5069671;28;20123;-61
2021/12/02 07:15:53;;;;;;;1.30;1.00;;;3.30;99.90;;;;;;5070902;28;20455;-61
2021/12/02 07:18:19;;;;;;;2.40;1.17;;;;;;;;;;5070212;28;20167;-61
2021/12/02 07:20:47;;;;;;;2.70;1.10;;;3.20;99.90;;;;;;5070799;28;20462;-61
2021/12/02 07:23:16;;;;;;;0.60;0.60;;;3.20;99.90;;;;;;5075970;28;20040;-62
2021/12/02 07:25:42;;;;;;;2.00;1.17;;;3.10;99.90;;;;;;5074142;28;20130;-62
2021/12/02 07:28:09;;;;;;;0.90;0.77;;;3.20;99.90;;;;;;5074998;28;20060;-62
2021/12/02 07:30:35;;;;;;;1.52;0.90;;;3.20;99.90;;;;;;5075413;28;20518;-62
2021/12/02 07:33:04;;;;;;;2.17;1.20;;;3.10;99.90;;;;;;5074110;28;20044;-62
2021/12/02 07:35:30;;;;;;;2.47;0.93;;;3.10;99.90;;;;;;5075438;28;20112;-62
2021/12/02 07:37:58;;;;;;;1.80;1.10;;;3.10;99.90;;;;;;5075434;28;20116;-62
2021/12/02 07:40:26;;;;;;;2.13;1.00;;;3.20;99.90;;;;;;5074014;28;20398;-62
2021/12/02 07:42:52;;;;;;;2.80;0.98;;;3.20;99.90;;;;;;5075488;28;20040;-62
2021/12/02 07:45:20;;;;;;;2.08;0.73;;;3.20;99.90;;;;;;5073556;28;20044;-62
2021/12/02 07:47:46;;;;;;;1.98;1.27;;;;;;;;;;5107353;28;20044;-62
2021/12/02 07:50:14;;;;;;;3.10;1.00;;;3.30;99.90;;;;;;5074936;28;20068;-62
2021/12/02 07:52:49;;;;;;;2.25;1.05;;;3.20;99.90;;;;;;5073996;28;20080;-62
2021/12/02 07:55:16;;;;;;;1.20;1.08;;;3.20;99.90;;;;;;5073497;28;20131;-62
2021/12/02 07:57:43;;;;;;;4.10;1.40;;;3.20;99.90;;;;;;5075275;28;20049;-62
2021/12/02 08:00:11;;;;;;;3.92;1.13;;;3.30;99.90;;;;;;5074231;28;20071;-62
2021/12/02 08:02:38;;;;;;;2.35;0.90;;;3.40;99.90;;;;;;5056225;28;20406;-62
2021/12/02 08:05:04;;;;;;;3.38;1.00;;;3.30;99.90;;;;;;5073869;28;20115;-62
2021/12/02 08:07:31;;;;;;;2.55;1.00;;;;;;;;;;5107065;28;20553;-62
2021/12/02 08:09:56;;;;;;;2.22;1.77;;;3.40;99.90;;;;;;5073258;28;20040;-62
2021/12/02 08:12:22;;;;;;;5.15;1.33;;;3.40;99.90;;;;;;5075905;28;20040;-62
2021/12/02 08:14:49;;;;;;;2.20;1.20;;;3.40;99.90;;;;;;5073931;28;20067;-62
2021/12/02 08:17:15;;;;;;;3.97;1.48;;;3.00;99.90;;;;;;5074991;28;20040;-62
2021/12/02 08:19:42;;;;;;;4.60;1.23;;;;;;;;;;5073215;28;20121;-62
2021/12/02 08:22:07;;;;;;;1.40;1.30;;;3.70;99.90;;;;;;5072657;28;20056;-62
2021/12/02 08:24:33;;;;;;;3.08;0.93;;;3.50;99.90;;;;;;5074804;28;20032;-62
2021/12/02 08:26:59;;;;;;;2.75;1.00;;;3.30;99.90;;;;;;5072614;28;20114;-62
2021/12/02 08:29:24;;;;;;;2.10;1.35;;;3.70;99.90;;;;;;5074365;28;20494;-62
2021/12/02 08:31:50;;;;;;;1.60;1.30;;;3.50;99.90;;;;;;5074288;28;20040;-62
2021/12/02 08:34:17;;;;;;;1.65;0.93;;;;;;;;;;5071868;28;20068;-62
2021/12/02 08:36:50;;;;;;;0.80;0.80;;;3.30;99.90;;;;;;5072780;28;20051;-62
2021/12/02 08:39:18;;;;;;;1.20;0.90;;;3.40;99.90;;;;;;5074151;28;20517;-62
2021/12/02 08:41:48;;;;;;;3.60;1.05;;;3.30;99.90;;;;;;5073793;28;20051;-62
2021/12/02 08:44:14;;;;;;;2.92;1.00;;;3.30;99.90;;;;;;5106068;28;20082;-62
2021/12/02 08:46:40;;;;;;;0.70;0.68;;;;;;;;;;5073787;28;20066;-62
2021/12/02 08:49:06;;;;;;;3.72;0.68;;;3.20;99.90;;;;;;5106522;28;20040;-62
2021/12/02 08:51:32;;;;;;;2.15;0.82;;;3.20;99.90;;;;;;5073228;28;20086;-62
2021/12/02 08:53:58;;;;;;;1.23;0.68;;;3.30;99.90;;;;;;5073960;28;20063;-62
2021/12/02 08:56:23;;;;;;;5.22;1.40;;;3.40;99.90;;;;;;5073219;28;20127;-62
2021/12/02 08:58:51;;;;;;;1.90;1.00;;;3.20;99.90;;;;;;5072399;28;20097;-62
2021/12/02 09:01:16;;;;;;;2.78;0.80;;;3.40;99.90;;;;;;5071685;28;20041;-62
2021/12/02 09:03:42;;;;;;;1.00;0.90;;;3.40;99.90;;;;;;5072441;28;20085;-62
2021/12/02 09:06:11;;;;;;;1.67;1.25;;;3.60;99.90;;;;;;5073154;28;20040;-62
2021/12/02 09:08:38;;;;;;;1.10;1.00;;;4.20;99.90;;;;;;5071640;28;20048;-62
2021/12/02 09:11:04;;;;;;;1.20;1.13;;;;;;;;;;5072242;28;20079;-62
2021/12/02 09:13:30;;;;;;;3.40;1.20;;;4.70;99.90;;;;;;5089126;28;20044;-63
2021/12/02 09:15:56;;;;;;;3.25;1.50;;;4.90;99.90;;;;;;5072097;28;20040;-63
2021/12/02 09:18:22;;;;;;;4.65;1.02;;;5.30;99.90;;;;;;5071905;28;20426;-63
2021/12/02 09:20:48;;;;;;;2.78;1.27;;;5.40;99.90;;;;;;5105096;28;20123;-62
2021/12/02 09:23:14;;;;;;;2.38;1.15;;;;;;;;;;5071002;28;20116;-63
2021/12/02 09:25:41;;;;;;;2.10;0.77;;;5.40;99.90;;;;;;5073381;28;20474;-63
2021/12/02 09:28:06;;;;;;;3.83;1.20;;;5.30;99.90;;;;;;5071242;28;20049;-63
2021/12/02 09:30:33;;;;;;;1.27;1.02;;;5.50;99.90;;;;;;5073441;28;20391;-62
2021/12/02 09:32:58;;;;;;;6.53;0.90;;;5.60;99.90;;;;;;5072930;28;20082;-63
2021/12/02 09:35:25;;;;;;;2.97;1.10;;;5.70;99.90;;;;;;5072983;28;20041;-63
2021/12/02 09:37:50;;;;;;;4.50;1.10;;;5.90;99.90;;;;;;5104374;28;20055;-63
2021/12/02 09:40:16;;;;;;;2.92;0.93;;;;;;;;;;5071663;28;20120;-63
2021/12/02 09:42:43;;;;;;;4.30;1.10;;;6.00;99.90;;;;;;5071383;28;20059;-62
2021/12/02 09:45:09;;;;;;;8.18;1.55;;;5.90;99.90;;;;;;5071250;28;20044;-62
2021/12/02 09:47:39;;;;;;;6.13;1.42;;;6.10;99.90;;;;;;5071717;28;20117;-63
2021/12/02 09:50:17;;;;;;;2.65;1.15;;;6.00;99.90;;;;;;5068591;28;20047;-65
2021/12/02 09:52:44;;;;;;;1.85;0.95;;;5.90;99.90;;;;;;5071063;28;20040;-64
2021/12/02 09:57:48;;;;;;;3.22;1.23;;;6.10;99.90;;;;;;5071470;28;20060;-64
2021/12/02 10:00:20;;;;;;;5.03;1.27;;;5.90;99.90;;;;;;5070742;28;20103;-63
2021/12/02 10:02:54;;;;;;;3.55;1.40;;;;;;;;;;5068784;28;20037;-63
2021/12/02 10:05:30;;;;;;;1.10;0.80;;;6.20;99.90;;;;;;5065606;28;20095;-64
2021/12/02 10:08:01;;;;;;;4.00;1.80;;;6.00;99.90;;;;;;5067369;28;20044;-64
2021/12/02 10:10:33;;;;;;;3.58;1.73;;;6.00;99.90;;;;;;5068608;28;20406;-63
2021/12/02 10:13:29;;;;;;;2.10;1.27;;;5.90;99.90;;;;;;5068693;28;20502;-64
2021/12/02 10:16:21;;;;;;;4.18;1.30;;;5.80;99.90;;;;;;5099139;28;20052;-64
2021/12/02 10:21:29;;;;;;;2.67;1.50;;;5.60;99.90;;;;;;5066607;28;20091;-63
2021/12/02 10:23:59;;;;;;;2.78;1.25;;;5.80;99.90;;;;;;5101077;28;20059;-63
2021/12/02 10:26:25;;;;;;;3.88;1.63;;;5.90;99.90;;;;;;5068464;28;20094;-63
2021/12/02 10:28:52;;;;;;;2.97;1.00;;;6.10;99.90;;;;;;5067101;28;20071;-64
2021/12/02 10:31:23;;;;;;;4.45;1.60;;;;;;;;;;5067099;28;20053;-64
2021/12/02 10:33:57;;;;;;;1.60;1.40;;;6.40;99.90;;;;;;5066734;28;20056;-63
2021/12/02 10:36:26;;;;;;;2.88;1.40;;;6.40;99.90;;;;;;5067138;28;20052;-64
2021/12/02 10:38:54;;;;;;;2.80;1.30;;;6.70;99.90;;;;;;5066129;28;20070;-64
2021/12/02 10:41:22;;;;;;;4.03;1.50;;;6.60;99.90;;;;;;5063750;28;20512;-64
2021/12/02 10:44:17;;;;;;;4.13;2.40;;;6.80;99.90;;;;;;5066828;28;20055;-64
2021/12/02 10:46:54;;;;;;;2.87;1.27;;;;;;;;;;5069456;28;20087;-64
2021/12/02 10:49:21;;;;;;;3.72;1.80;;;7.30;99.90;;;;;;5070199;28;20040;-65
2021/12/02 10:51:52;;;;;;;2.60;1.10;;;7.10;99.90;;;;;;5071108;28;20548;-65
2021/12/02 10:54:32;;;;;;;2.25;1.02;;;6.60;99.90;;;;;;5069156;28;20044;-64
2021/12/02 10:57:05;;;;;;;2.05;0.90;;;6.20;99.90;;;;;;5071375;28;20132;-64
2021/12/02 10:59:42;;;;;;;1.17;1.05;;;5.90;99.90;;;;;;5075009;28;20051;-64
2021/12/02 11:02:26;;;;;;;1.13;1.00;;;6.00;99.90;;;;;;5107604;28;20515;-64
2021/12/02 11:04:55;;;;;;;1.55;1.00;;;5.90;99.90;;;;;;5074349;28;20060;-64
2021/12/02 11:07:28;;;;;;;2.55;1.05;;;5.60;99.90;;;;;;5073466;28;20052;-64
2021/12/02 11:09:55;;;;;;;1.85;1.10;;;5.20;99.90;;;;;;5070034;28;20040;-64
2021/12/02 11:12:23;;;;;;;3.67;1.20;;;4.90;99.90;;;;;;5074679;28;20391;-62
2021/12/02 11:15:01;;;;;;;1.95;1.13;;;4.50;99.90;;;;;;5073078;28;20044;-61
2021/12/02 11:17:30;;;;;;;3.17;1.17;;;4.30;99.90;;;;;;5075116;28;20569;-62
2021/12/02 11:19:57;;;;;;;2.58;1.40;;;4.20;99.90;;;;;;5074471;28;20582;-61
2021/12/02 11:22:23;;;;;;;1.23;1.13;;;4.20;99.90;;;;;;5074659;28;20070;-61
2021/12/02 11:24:49;;;;;;;2.00;1.10;;;5.60;99.90;;;;;;5074468;28;20482;-61
2021/12/02 11:27:28;;;;;;;3.83;1.25;;;4.10;99.90;;;;;;5072708;28;20044;-61
2021/12/02 11:29:56;;;;;;;2.42;0.90;;;;;;;;;;5058247;28;20045;-61
2021/12/02 11:32:49;;;;;;;1.67;1.08;;;4.10;99.90;;;;;;5074344;28;20055;-61
2021/12/02 11:35:19;;;;;;;1.10;1.00;;;4.20;99.90;;;;;;5074451;28;20055;-61
2021/12/02 11:37:47;;;;;;;2.60;1.27;;;;;;;;;;5074175;28;20043;-61
2021/12/02 11:40:19;;;;;;;1.58;1.17;;;5.90;99.90;;;;;;5073681;28;20406;-61
2021/12/02 11:42:45;;;;;;;1.58;1.20;;;6.50;99.90;;;;;;5106748;27;20132;-61
2021/12/02 11:45:13;;;;;;;1.20;0.88;;;;;;;;;;5074077;28;20169;-61
2021/12/02 11:47:40;;;;;;;1.98;1.00;;;6.00;99.90;;;;;;5078494;28;20572;-62
2021/12/02 11:50:08;;;;;;;1.63;0.88;;;6.30;99.90;;;;;;5073404;28;20056;-62
2021/12/02 11:52:38;;;;;;;4.00;1.13;;;5.60;99.90;;;;;;5072979;28;20048;-63
2021/12/02 11:55:10;;;;;;;1.08;0.98;;;;;;;;;;5073337;28;20044;-61
2021/12/02 11:57:36;;;;;;;1.45;1.35;;;;;;;;;;5073299;28;20060;-63
2021/12/02 12:00:05;;;;;;;2.65;1.10;;;4.40;99.90;;;;;;5073143;28;20055;-62
2021/12/02 12:02:31;;;;;;;2.83;1.10;;;4.00;99.90;;;;;;5074537;28;20402;-62
2021/12/02 12:05:04;;;;;;;1.65;1.02;;;;;;;;;;5073008;28;20040;-62
2021/12/02 12:07:39;;;;;;;0.60;0.50;;;;;;;;;;5073699;28;20094;-61
2021/12/02 12:10:22;;;;;;;1.15;0.90;;;;;;;;;;5072961;28;20037;-61
2021/12/02 12:12:49;;;;;;;0.98;0.90;;;3.70;99.90;;;;;;5073177;28;20456;-61
2021/12/02 12:15:51;;;;;;;1.15;1.05;;;;;;;;;;5072715;28;20044;-62
2021/12/02 12:18:24;;;;;;;2.25;0.80;;;4.00;99.90;;;;;;5003029;28;20053;-63
2021/12/02 12:20:50;;;;;;;1.73;0.70;;;4.40;99.90;;;;;;5060843;28;20048;-62
2021/12/02 12:23:34;;;;;;;0.73;0.73;;;;;;;;;;5077052;28;20044;-63
2021/12/02 12:26:13;;;;;;;0.93;0.93;;;;;;;;;;5074516;28;20036;-63
2021/12/02 12:29:04;;;;;;;1.42;1.33;;;8.70;99.90;;;;;;5107394;27;20052;-63
2021/12/02 12:31:31;;;;;;;1.35;0.90;;;10.00;99.90;;;;;;5072617;28;20032;-63
2021/12/02 12:33:59;;;;;;;0.90;0.90;;;10.70;99.90;;;;;;5076615;28;20051;-63
2021/12/02 12:36:40;;;;;;;1.30;1.20;;;11.30;99.90;;;;;;5076031;28;20032;-62
2021/12/02 12:39:33;;;;;;;1.13;1.00;;;10.80;99.90;;;;;;5079566;28;20048;-63
2021/12/02 12:42:12;;;;;;;1.23;1.08;;;10.20;99.90;;;;;;5105015;27;20056;-63
2021/12/02 12:44:49;;;;;;;1.85;1.00;;;9.90;99.90;;;;;;5075240;28;20449;-62
2021/12/02 12:47:15;;;;;;;1.38;0.82;;;9.50;99.90;;;;;;5077036;28;20048;-62
2021/12/02 12:49:42;;;;;;;1.55;0.60;;;9.50;99.90;;;;;;5074691;28;20126;-62
2021/12/02 12:52:19;;;;;;;1.67;0.95;;;9.30;99.90;;;;;;5074543;28;20089;-62
2021/12/02 12:55:22;;;;;;;3.00;1.02;;;9.10;99.90;;;;;;5077647;28;20033;-61
2021/12/02 12:58:17;;;;;;;3.20;1.30;;;8.80;99.90;;;;;;5040096;28;20138;-62
2021/12/02 13:00:47;;;;;;;2.83;1.27;;;8.40;99.90;;;;;;5104727;28;20100;-62
2021/12/02 13:03:17;;;;;;;1.20;0.88;;;8.80;99.90;;;;;;5071961;28;20396;-61
2021/12/02 13:05:51;;;;;;;1.85;1.08;;;8.80;99.90;;;;;;5072023;28;20037;-62
2021/12/02 13:08:23;;;;;;;1.02;0.75;;;9.10;99.90;;;;;;5054351;28;20486;-62
2021/12/02 13:11:00;;;;;;;1.88;0.95;;;9.00;99.90;;;;;;5071437;28;20028;-63
2021/12/02 13:13:33;;;;;;;1.10;0.82;;;8.70;99.90;;;;;;5069778;28;20025;-61
2021/12/02 13:16:35;;;;;;;1.38;1.08;;;8.80;99.90;;;;;;5070377;28;20032;-62
2021/12/02 13:19:20;;;;;;;4.32;1.20;;;8.40;99.90;;;;;;5054971;28;20093;-61
2021/12/02 13:21:56;;;;;;;2.80;0.90;;;8.10;99.90;;;;;;5070225;28;20057;-62
2021/12/02 13:24:33;;;;;;;1.63;1.10;;;7.70;99.90;;;;;;5071915;28;20700;-63
2021/12/02 13:27:05;;;;;;;1.08;0.77;;;7.20;99.90;;;;;;5070002;28;20167;-63
2021/12/02 13:29:33;;;;;;;1.20;0.90;;;7.10;99.90;;;;;;5069644;28;20100;-63
2021/12/02 13:32:04;;;;;;;1.13;1.00;;;6.50;99.90;;;;;;5053254;28;20040;-64
2021/12/02 13:34:31;;;;;;;1.02;0.95;;;6.30;99.90;;;;;;5068576;28;20494;-63
2021/12/02 13:37:01;;;;;;;3.83;0.85;;;5.90;99.90;;;;;;5070149;28;20047;-64